createdAt,value
2019-05-06T00:01:45.487Z,0.50
2019-05-06T00:04:15.214Z,0.53
2019-05-06T00:06:44.886Z,0.50
2019-05-06T00:09:14.809Z,0.60
2019-05-06T00:11:44.842Z,0.50
2019-05-06T00:14:15.058Z,0.40
2019-05-06T00:16:46.021Z,0.50
2019-05-06T00:19:16.662Z,0.50
2019-05-06T00:21:47.781Z,0.63
2019-05-06T00:24:17.427Z,0.50
2019-05-06T00:26:57.896Z,0.50
2019-05-06T00:29:28.851Z,0.40
2019-05-06T00:31:58.589Z,0.73
2019-05-06T00:34:29.197Z,0.90
2019-05-06T00:36:58.845Z,0.77
2019-05-06T00:39:39.274Z,0.50
2019-05-06T00:42:19.816Z,0.80
2019-05-06T00:44:49.681Z,0.70
2019-05-06T00:47:20.371Z,0.50
2019-05-06T00:49:49.887Z,0.50
2019-05-06T00:52:19.498Z,0.50
2019-05-06T00:54:50.755Z,0.50
2019-05-06T00:57:20.374Z,0.77
2019-05-06T00:59:53.806Z,0.50
2019-05-06T01:02:23.515Z,0.60
2019-05-06T01:04:54.168Z,0.60
2019-05-06T01:07:23.960Z,0.67
2019-05-06T01:09:54.139Z,0.70
2019-05-06T01:12:24.087Z,0.40
2019-05-06T01:14:55.255Z,0.40
2019-05-06T01:17:24.760Z,0.40
2019-05-06T01:19:54.475Z,0.50
2019-05-06T01:22:24.751Z,0.43
2019-05-06T01:24:55.867Z,0.43
2019-05-06T01:27:25.619Z,0.60
2019-05-06T01:29:56.325Z,0.53
2019-05-06T01:32:25.895Z,0.50
2019-05-06T01:34:55.487Z,0.50
2019-05-06T01:37:27.589Z,0.70
2019-05-06T01:40:14.316Z,0.70
2019-05-06T01:42:51.647Z,0.67
2019-05-06T01:45:21.316Z,0.60
2019-05-06T01:47:51.083Z,0.70
2019-05-06T01:50:20.749Z,0.60
2019-05-06T01:52:54.110Z,1.23
2019-05-06T01:55:24.490Z,0.70
2019-05-06T01:57:54.619Z,0.70
2019-05-06T02:00:24.392Z,0.70
2019-05-06T02:02:54.760Z,0.60
2019-05-06T02:05:24.510Z,0.80
2019-05-06T02:07:55.023Z,0.70
2019-05-06T02:10:24.587Z,0.80
2019-05-06T02:12:54.231Z,0.80
2019-05-06T02:15:24.023Z,0.70
2019-05-06T02:17:55.132Z,0.80
2019-05-06T02:20:25.025Z,0.63
2019-05-06T02:22:56.175Z,0.77
2019-05-06T02:25:27.273Z,1.10
2019-05-06T02:27:58.058Z,0.60
2019-05-06T02:30:36.458Z,0.80
2019-05-06T02:33:16.750Z,0.80
2019-05-06T02:35:48.073Z,0.93
2019-05-06T02:38:33.256Z,0.57
2019-05-06T02:40:57.395Z,0.97
2019-05-06T02:43:26.919Z,0.80
2019-05-06T02:45:57.598Z,0.73
2019-05-06T02:48:37.818Z,1.00
2019-05-06T02:51:09.049Z,0.97
2019-05-06T02:53:38.613Z,0.90
2019-05-06T02:56:23.978Z,0.93
2019-05-06T02:58:54.626Z,1.20
2019-05-06T03:01:24.187Z,0.97
2019-05-06T03:03:53.864Z,0.80
2019-05-06T03:06:23.975Z,1.10
2019-05-06T03:08:54.431Z,1.13
2019-05-06T03:11:24.261Z,1.10
2019-05-06T03:13:54.055Z,1.07
2019-05-06T03:16:23.938Z,1.17
2019-05-06T03:18:53.809Z,0.80
2019-05-06T03:21:25.565Z,1.07
2019-05-06T03:24:03.957Z,1.10
2019-05-06T03:26:34.072Z,1.00
2019-05-06T03:29:03.706Z,1.10
2019-05-06T03:31:36.357Z,0.90
2019-05-06T03:34:29.036Z,1.10
2019-05-06T03:36:40.723Z,1.23
2019-05-06T03:39:07.923Z,1.20
2019-05-06T03:41:37.501Z,1.13
2019-05-06T03:44:07.160Z,1.00
2019-05-06T03:46:55.094Z,2.30
2019-05-06T03:49:29.040Z,1.10
2019-05-06T03:51:58.733Z,1.10
2019-05-06T03:54:28.510Z,0.97
2019-05-06T03:56:58.493Z,1.33
2019-05-06T03:59:33.315Z,1.40
2019-05-06T04:02:01.581Z,1.20
2019-05-06T04:04:33.233Z,1.30
2019-05-06T04:07:03.432Z,1.10
2019-05-06T04:09:36.940Z,1.10
2019-05-06T04:12:04.682Z,1.73
2019-05-06T04:14:34.363Z,1.10
2019-05-06T04:17:13.045Z,1.40
2019-05-06T04:19:47.105Z,1.23
2019-05-06T04:22:23.550Z,1.27
2019-05-06T04:25:07.721Z,1.20
2019-05-06T04:27:46.191Z,1.10
2019-05-06T04:30:16.492Z,1.22
2019-05-06T04:32:46.277Z,1.07
2019-05-06T04:35:15.960Z,1.10
2019-05-06T04:37:47.230Z,1.20
2019-05-06T04:40:17.260Z,1.22
2019-05-06T04:42:48.719Z,1.27
2019-05-06T04:45:18.474Z,1.23
2019-05-06T04:47:53.490Z,1.20
2019-05-06T04:50:24.206Z,1.13
2019-05-06T04:53:05.003Z,1.07
2019-05-06T04:55:35.467Z,1.17
2019-05-06T04:58:05.441Z,1.10
2019-05-06T05:00:36.667Z,1.00
2019-05-06T05:03:06.459Z,1.00
2019-05-06T05:05:36.040Z,1.07
2019-05-06T05:08:06.613Z,1.30
2019-05-06T05:10:54.070Z,1.40
2019-05-06T05:13:25.263Z,1.70
2019-05-06T05:16:02.530Z,1.40
2019-05-06T05:18:39.746Z,1.30
2019-05-06T05:21:09.291Z,1.70
2019-05-06T05:23:38.753Z,1.23
2019-05-06T05:26:08.236Z,1.20
2019-05-06T05:28:37.714Z,1.20
2019-05-06T05:31:07.375Z,1.10
2019-05-06T05:33:36.834Z,0.87
2019-05-06T05:36:06.290Z,1.07
2019-05-06T05:38:36.292Z,1.00
2019-05-06T05:41:05.748Z,1.07
2019-05-06T05:43:39.822Z,2.07
2019-05-06T05:46:12.623Z,1.80
2019-05-06T05:48:56.284Z,1.17
2019-05-06T05:51:25.776Z,2.47
2019-05-06T05:53:55.245Z,1.27
2019-05-06T05:56:24.660Z,1.10
2019-05-06T05:58:54.312Z,2.50
2019-05-06T06:01:24.782Z,1.07
2019-05-06T06:03:54.356Z,1.10
2019-05-06T06:06:23.887Z,1.37
2019-05-06T06:08:53.476Z,1.00
2019-05-06T06:11:24.606Z,5.80
2019-05-06T06:13:55.834Z,1.40
2019-05-06T06:16:39.285Z,1.10
2019-05-06T06:19:12.581Z,1.43
2019-05-06T06:21:43.139Z,1.37
2019-05-06T06:24:14.329Z,0.90
2019-05-06T06:26:43.880Z,1.20
2019-05-06T06:29:15.194Z,1.40
2019-05-06T06:31:46.329Z,1.17
2019-05-06T06:34:22.310Z,0.93
2019-05-06T06:36:53.538Z,1.30
2019-05-06T06:39:24.659Z,1.10
2019-05-06T06:41:54.061Z,1.20
2019-05-06T06:44:28.132Z,1.30
2019-05-06T06:46:57.618Z,1.10
2019-05-06T06:49:28.254Z,1.20
2019-05-06T06:51:57.804Z,1.17
2019-05-06T06:54:27.208Z,1.10
2019-05-06T06:57:06.137Z,1.60
2019-05-06T06:59:34.969Z,1.30
2019-05-06T07:02:06.170Z,1.30
2019-05-06T07:04:54.059Z,1.30
2019-05-06T07:07:39.974Z,1.37
2019-05-06T07:09:56.300Z,1.20
2019-05-06T07:12:25.701Z,1.13
2019-05-06T07:15:02.654Z,1.40
2019-05-06T07:17:32.781Z,1.60
2019-05-06T07:20:09.932Z,1.60
2019-05-06T07:22:39.445Z,1.30
2019-05-06T07:25:09.056Z,1.60
2019-05-06T07:27:39.544Z,2.17
2019-05-06T07:30:09.276Z,1.70
2019-05-06T07:32:38.742Z,2.30
2019-05-06T07:35:09.207Z,2.30
2019-05-06T07:37:38.595Z,1.80
2019-05-06T07:40:09.433Z,1.80
2019-05-06T07:42:42.545Z,2.03
2019-05-06T07:45:13.609Z,1.40
2019-05-06T07:47:53.107Z,2.20
2019-05-06T07:50:22.438Z,2.00
2019-05-06T07:53:08.782Z,2.50
2019-05-06T07:55:38.366Z,2.63
2019-05-06T07:58:07.839Z,2.57
2019-05-06T08:00:37.443Z,2.20
2019-05-06T08:03:07.001Z,2.30
2019-05-06T08:05:36.403Z,1.83
2019-05-06T08:08:05.954Z,2.47
2019-05-06T08:10:35.488Z,2.27
2019-05-06T08:13:04.999Z,2.10
2019-05-06T08:15:34.539Z,2.10
2019-05-06T08:18:04.163Z,2.23
2019-05-06T08:20:36.507Z,2.80
2019-05-06T08:23:08.685Z,2.10
2019-05-06T08:25:42.330Z,1.90
2019-05-06T08:28:13.072Z,2.00
2019-05-06T08:30:43.184Z,1.80
2019-05-06T08:33:13.043Z,1.80
2019-05-06T08:35:42.743Z,1.90
2019-05-06T08:38:12.407Z,2.00
2019-05-06T08:40:43.115Z,1.90
2019-05-06T08:43:13.253Z,2.10
2019-05-06T08:45:42.849Z,1.70
2019-05-06T08:48:13.016Z,4.00
2019-05-06T08:50:44.212Z,1.70
2019-05-06T08:53:16.454Z,2.27
2019-05-06T08:55:47.548Z,1.90
2019-05-06T08:58:17.116Z,2.00
2019-05-06T09:00:57.391Z,6.03
2019-05-06T09:03:25.802Z,2.67
2019-05-06T09:05:55.291Z,1.83
2019-05-06T09:08:24.958Z,2.57
2019-05-06T09:10:54.510Z,2.20
2019-05-06T09:13:25.154Z,1.73
2019-05-06T09:15:54.557Z,1.97
2019-05-06T09:18:24.264Z,2.20
2019-05-06T09:20:53.831Z,1.90
2019-05-06T09:23:23.331Z,1.87
2019-05-06T09:25:53.258Z,1.90
2019-05-06T09:28:30.369Z,1.77
2019-05-06T09:31:02.191Z,2.67
2019-05-06T09:33:33.510Z,2.07
2019-05-06T09:36:03.465Z,2.47
2019-05-06T09:38:33.133Z,2.50
2019-05-06T09:41:04.956Z,1.90
2019-05-06T09:43:33.760Z,1.80
2019-05-06T09:46:03.236Z,2.20
2019-05-06T09:48:52.799Z,1.80
2019-05-06T09:51:22.483Z,2.10
2019-05-06T09:54:08.671Z,2.10
2019-05-06T09:56:42.847Z,2.17
2019-05-06T09:59:15.335Z,2.20
2019-05-06T10:01:46.912Z,2.20
2019-05-06T10:04:18.251Z,2.20
2019-05-06T10:06:57.153Z,2.30
2019-05-06T10:09:25.554Z,2.20
2019-05-06T10:11:59.187Z,2.30
2019-05-06T10:14:28.823Z,7.33
2019-05-06T10:17:04.411Z,2.40
2019-05-06T10:19:32.562Z,3.03
2019-05-06T10:22:03.585Z,2.50
2019-05-06T10:24:33.629Z,2.53
2019-05-06T10:27:11.974Z,2.70
2019-05-06T10:29:48.525Z,2.70
2019-05-06T10:32:19.726Z,2.80
2019-05-06T10:34:52.619Z,2.80
2019-05-06T10:37:24.685Z,3.08
2019-05-06T10:39:59.688Z,2.40
2019-05-06T10:42:32.475Z,2.20
2019-05-06T10:45:06.773Z,2.30
2019-05-06T10:47:37.359Z,2.60
2019-05-06T10:50:12.442Z,2.43
2019-05-06T10:52:48.022Z,2.93
2019-05-06T10:55:23.130Z,2.87
2019-05-06T10:57:53.208Z,3.13
2019-05-06T11:00:27.157Z,3.13
2019-05-06T11:03:17.184Z,2.50
2019-05-06T11:05:53.767Z,3.00
2019-05-06T11:11:46.411Z,3.07
2019-05-06T11:14:37.580Z,2.90
2019-05-06T11:17:08.207Z,2.60
2019-05-06T11:19:37.732Z,2.93
2019-05-06T11:22:07.382Z,3.60
2019-05-06T11:24:37.447Z,3.07
2019-05-06T11:27:06.934Z,3.00
2019-05-06T11:29:43.550Z,3.03
2019-05-06T11:32:21.874Z,3.07
2019-05-06T11:34:56.030Z,2.80
2019-05-06T11:37:27.439Z,2.97
2019-05-06T11:39:57.021Z,2.83
2019-05-06T11:42:32.131Z,2.50
2019-05-06T11:44:57.964Z,2.60
2019-05-06T11:47:27.523Z,2.90
2019-05-06T11:49:58.152Z,3.30
2019-05-06T11:52:27.863Z,2.60
2019-05-06T11:54:59.020Z,2.60
2019-05-06T11:57:28.542Z,2.83
2019-05-06T11:59:58.099Z,2.92
2019-05-06T12:02:30.104Z,2.83
2019-05-06T12:04:59.595Z,2.30
2019-05-06T12:07:29.128Z,3.10
2019-05-06T12:09:58.669Z,3.07
2019-05-06T12:12:28.169Z,2.60
2019-05-06T12:14:57.711Z,3.07
2019-05-06T12:17:27.218Z,2.73
2019-05-06T12:19:56.914Z,3.00
2019-05-06T12:22:28.100Z,3.20
2019-05-06T12:24:57.617Z,3.00
2019-05-06T12:27:45.355Z,2.93
2019-05-06T12:30:17.407Z,2.93
2019-05-06T12:32:52.664Z,2.90
2019-05-06T12:35:22.448Z,2.70
2019-05-06T12:37:53.688Z,2.60
2019-05-06T12:40:23.222Z,2.40
2019-05-06T12:42:54.541Z,2.40
2019-05-06T12:45:25.792Z,2.37
2019-05-06T12:47:57.060Z,2.25
2019-05-06T12:50:26.787Z,2.43
2019-05-06T12:52:57.930Z,2.10
2019-05-06T12:55:27.695Z,2.20
2019-05-06T12:57:57.361Z,2.22
2019-05-06T13:00:28.685Z,1.90
2019-05-06T13:02:58.328Z,2.30
2019-05-06T13:05:31.938Z,2.60
2019-05-06T13:08:05.572Z,2.50
2019-05-06T13:10:33.490Z,2.47
2019-05-06T13:13:04.278Z,2.00
2019-05-06T13:15:33.932Z,2.40
2019-05-06T13:18:06.955Z,2.70
2019-05-06T13:20:35.342Z,2.03
2019-05-06T13:23:15.860Z,1.70
2019-05-06T13:25:43.028Z,1.60
2019-05-06T13:28:16.323Z,2.40
2019-05-06T13:30:45.984Z,2.50
2019-05-06T13:33:34.127Z,1.87
2019-05-06T13:36:03.396Z,2.50
2019-05-06T13:38:33.032Z,2.90
2019-05-06T13:41:03.327Z,2.73
2019-05-06T13:43:36.916Z,2.27
2019-05-06T13:46:12.400Z,2.20
2019-05-06T13:48:43.810Z,2.40
2019-05-06T13:51:17.791Z,2.50
2019-05-06T13:53:47.305Z,2.50
2019-05-06T13:56:16.801Z,2.30
2019-05-06T13:58:46.297Z,2.20
2019-05-06T14:01:17.449Z,7.60
2019-05-06T14:03:47.021Z,2.70
2019-05-06T14:06:16.907Z,2.67
2019-05-06T14:08:46.377Z,2.60
2019-05-06T14:11:16.986Z,2.43
2019-05-06T14:13:46.993Z,2.30
2019-05-06T14:16:16.511Z,2.47
2019-05-06T14:18:46.030Z,2.50
2019-05-06T14:21:15.570Z,2.00
2019-05-06T14:23:45.085Z,2.30
2019-05-06T14:26:25.125Z,2.40
2019-05-06T14:28:56.380Z,2.37
2019-05-06T14:31:27.590Z,2.00
2019-05-06T14:33:57.121Z,2.30
2019-05-06T14:36:27.654Z,2.77
2019-05-06T14:38:57.492Z,2.40
2019-05-06T14:41:27.990Z,1.87
2019-05-06T14:43:57.575Z,2.30
2019-05-06T14:46:28.719Z,2.13
2019-05-06T14:48:58.212Z,2.30
2019-05-06T14:51:27.691Z,2.27
2019-05-06T14:53:57.218Z,2.23
2019-05-06T14:56:32.024Z,2.50
2019-05-06T14:59:06.031Z,2.30
2019-05-06T15:01:36.568Z,2.40
2019-05-06T15:04:06.180Z,2.90
2019-05-06T15:06:35.740Z,2.53
2019-05-06T15:09:07.588Z,3.10
2019-05-06T15:11:37.227Z,3.93
2019-05-06T15:14:06.722Z,2.47
2019-05-06T15:16:36.302Z,3.13
2019-05-06T15:19:05.857Z,2.60
2019-05-06T15:21:38.453Z,3.20
2019-05-06T15:24:06.738Z,2.60
2019-05-06T15:26:36.249Z,2.50
2019-05-06T15:29:05.817Z,2.60
2019-05-06T15:31:45.638Z,2.60
2019-05-06T15:34:18.514Z,2.83
2019-05-06T15:36:58.704Z,3.07
2019-05-06T15:39:28.221Z,2.50
2019-05-06T15:41:57.870Z,2.20
2019-05-06T15:44:27.378Z,2.40
2019-05-06T15:46:56.973Z,2.83
2019-05-06T15:49:26.456Z,2.60
2019-05-06T15:51:55.946Z,4.43
2019-05-06T15:54:25.535Z,2.20
2019-05-06T15:56:55.138Z,1.73
2019-05-06T15:59:24.649Z,2.30
2019-05-06T16:01:54.186Z,2.07
2019-05-06T16:04:23.771Z,2.20
2019-05-06T16:06:53.283Z,1.83
2019-05-06T16:09:23.345Z,2.33
2019-05-06T16:11:53.540Z,1.83
2019-05-06T16:14:23.240Z,2.00
2019-05-06T16:16:53.027Z,2.43
2019-05-06T16:19:23.044Z,2.27
2019-05-06T16:21:53.830Z,2.20
2019-05-06T16:24:24.966Z,2.03
2019-05-06T16:26:54.481Z,2.40
2019-05-06T16:29:36.163Z,2.20
2019-05-06T16:32:06.621Z,2.60
2019-05-06T16:34:36.393Z,2.20
2019-05-06T16:37:05.961Z,2.43
2019-05-06T16:39:35.564Z,2.33
2019-05-06T16:42:05.173Z,2.07
2019-05-06T16:44:34.749Z,2.67
2019-05-06T16:47:07.272Z,2.70
2019-05-06T16:49:36.837Z,2.95
2019-05-06T16:52:06.497Z,2.98
2019-05-06T16:54:37.158Z,2.10
2019-05-06T16:57:17.599Z,2.10
2019-05-06T16:59:56.935Z,2.50
2019-05-06T17:02:29.458Z,2.80
2019-05-06T17:05:19.013Z,2.47
2019-05-06T17:07:52.537Z,2.50
2019-05-06T17:10:22.762Z,2.50
2019-05-06T17:12:53.723Z,2.70
2019-05-06T17:15:23.337Z,3.07
2019-05-06T17:17:53.235Z,3.10
2019-05-06T17:20:22.857Z,2.27
2019-05-06T17:22:53.160Z,2.30
2019-05-06T17:25:23.073Z,1.90
2019-05-06T17:27:52.754Z,2.20
2019-05-06T17:30:33.128Z,2.90
2019-05-06T17:33:33.926Z,2.93
2019-05-06T17:36:18.489Z,2.55
2019-05-06T17:42:01.639Z,2.80
2019-05-06T17:44:32.659Z,2.00
2019-05-06T17:47:14.384Z,6.10
2019-05-06T17:49:44.159Z,1.87
2019-05-06T17:55:26.460Z,2.30
2019-05-06T17:58:28.946Z,2.27
2019-05-06T18:01:23.363Z,1.73
2019-05-06T18:06:55.793Z,2.10
2019-05-06T18:09:25.323Z,2.90
2019-05-06T18:11:58.798Z,2.50
2019-05-06T18:24:15.672Z,3.13
2019-05-06T18:26:49.551Z,2.80
2019-05-06T18:29:26.381Z,7.53
2019-05-06T18:32:00.094Z,2.70
2019-05-06T18:40:23.211Z,2.80
2019-05-06T18:42:52.609Z,3.90
2019-05-06T18:45:22.175Z,4.60
2019-05-06T18:47:53.165Z,3.80
2019-05-06T18:50:24.116Z,3.33
2019-05-06T18:52:53.652Z,2.97
2019-05-06T18:55:24.210Z,2.20
2019-05-06T18:57:53.787Z,2.63
2019-05-06T19:00:23.458Z,2.97
2019-05-06T19:02:52.935Z,2.50
2019-05-06T19:05:32.315Z,2.53
2019-05-06T19:08:03.125Z,2.27
2019-05-06T19:10:33.932Z,1.90
2019-05-06T19:13:04.851Z,1.90
2019-05-06T19:15:34.431Z,2.13
2019-05-06T19:18:05.584Z,2.30
2019-05-06T19:20:35.081Z,2.60
2019-05-06T19:23:04.583Z,2.20
2019-05-06T19:25:34.777Z,2.23
2019-05-06T19:28:04.413Z,3.00
2019-05-06T19:30:34.931Z,3.83
2019-05-06T19:33:06.901Z,2.80
2019-05-06T19:35:37.052Z,2.60
2019-05-06T19:38:06.829Z,2.63
2019-05-06T19:40:36.299Z,2.90
2019-05-06T19:43:05.864Z,3.27
2019-05-06T19:45:35.444Z,2.60
2019-05-06T19:48:04.927Z,2.80
2019-05-06T19:50:36.868Z,2.73
2019-05-06T19:53:06.466Z,4.33
2019-05-06T19:55:36.152Z,4.03
2019-05-06T19:58:05.639Z,5.13
2019-05-06T20:00:35.171Z,6.50
2019-05-06T20:03:04.689Z,9.73
2019-05-06T20:05:38.651Z,4.50
2019-05-06T20:08:28.086Z,3.97
2019-05-06T20:10:59.203Z,3.50
2019-05-06T20:13:28.773Z,4.33
2019-05-06T20:15:58.253Z,3.57
2019-05-06T20:18:27.752Z,4.30
2019-05-06T20:20:57.276Z,3.30
2019-05-06T20:23:26.837Z,4.00
2019-05-06T20:25:56.485Z,4.30
2019-05-06T20:28:25.990Z,4.80
2019-05-06T20:30:55.583Z,4.03
2019-05-06T20:33:27.684Z,3.80
2019-05-06T20:35:57.208Z,3.20
2019-05-06T20:38:27.634Z,3.60
2019-05-06T20:40:57.039Z,2.77
2019-05-06T20:43:26.492Z,2.60
2019-05-06T20:46:13.254Z,2.40
2019-05-06T20:48:42.757Z,1.90
2019-05-06T20:51:12.433Z,2.20
2019-05-06T20:53:43.298Z,2.10
2019-05-06T20:56:12.751Z,2.40
2019-05-06T20:58:42.223Z,2.33
2019-05-06T21:01:11.729Z,2.47
2019-05-06T21:03:42.415Z,2.50
2019-05-06T21:06:13.344Z,2.50
2019-05-06T21:08:42.826Z,2.60
2019-05-06T21:11:25.795Z,2.40
2019-05-06T21:13:43.606Z,2.40
2019-05-06T21:16:13.178Z,2.40
2019-05-06T21:18:42.724Z,2.60
2019-05-06T21:21:13.610Z,2.50
2019-05-06T21:23:45.294Z,2.97
2019-05-06T21:26:14.803Z,2.30
2019-05-06T21:28:46.418Z,2.13
2019-05-06T21:31:15.494Z,2.00
2019-05-06T21:33:44.940Z,2.30
2019-05-06T21:36:14.343Z,2.03
2019-05-06T21:38:43.895Z,2.17
2019-05-06T21:41:17.589Z,2.10
2019-05-06T21:43:50.118Z,2.20
2019-05-06T21:46:20.826Z,2.43
2019-05-06T21:48:50.329Z,2.13
2019-05-06T21:51:26.267Z,2.17
2019-05-06T21:53:57.422Z,2.30
2019-05-06T21:56:32.654Z,2.50
2019-05-06T21:59:06.714Z,2.27
2019-05-06T22:01:37.016Z,2.10
2019-05-06T22:04:06.626Z,2.70
2019-05-06T22:06:36.160Z,2.33
2019-05-06T22:09:05.992Z,2.77
2019-05-06T22:11:35.963Z,2.97
2019-05-06T22:14:05.440Z,2.37
2019-05-06T22:16:35.483Z,2.50
2019-05-06T22:19:05.003Z,2.43
2019-05-06T22:21:35.911Z,2.30
2019-05-06T22:24:05.842Z,2.43
2019-05-06T22:26:35.335Z,2.70
2019-05-06T22:29:04.882Z,2.93
2019-05-06T22:31:34.413Z,2.47
2019-05-06T22:34:03.973Z,2.40
2019-05-06T22:36:33.769Z,2.40
2019-05-06T22:39:04.724Z,2.67
2019-05-06T22:41:35.278Z,2.83
2019-05-06T22:44:13.079Z,2.63
2019-05-06T22:46:36.038Z,3.80
2019-05-06T22:49:05.552Z,3.80
2019-05-06T22:51:35.032Z,3.67
2019-05-06T22:54:04.604Z,3.60
2019-05-06T22:56:34.035Z,2.83
2019-05-06T22:59:03.556Z,2.80
2019-05-06T23:01:43.520Z,2.50
2019-05-06T23:04:14.663Z,2.83
2019-05-06T23:06:44.202Z,2.70
2019-05-06T23:09:13.648Z,2.23
2019-05-06T23:11:44.721Z,2.17
2019-05-06T23:14:27.871Z,2.30
2019-05-06T23:16:47.314Z,1.97
2019-05-06T23:19:16.943Z,1.80
2019-05-06T23:21:46.358Z,1.70
2019-05-06T23:24:15.839Z,1.87
2019-05-06T23:26:46.253Z,1.90
2019-05-06T23:29:15.734Z,1.90
2019-05-06T23:31:45.226Z,3.07
2019-05-06T23:34:14.808Z,3.00
2019-05-06T23:36:49.610Z,3.00
2019-05-06T23:39:38.663Z,3.00
2019-05-06T23:42:26.499Z,3.33
2019-05-06T23:45:13.881Z,2.57
2019-05-06T23:48:02.556Z,2.40
2019-05-06T23:50:50.512Z,1.80
2019-05-06T23:53:40.394Z,1.67
2019-05-06T23:56:28.081Z,1.57
2019-05-06T23:58:57.582Z,1.80
